Time;durP1;ratioP1;P1;durP2;ratioP2;P2;SDS_P1;SDS_P2;PMS_P1;PMS_P2;Temp;Humidity;BMP_temperature;BMP_pressure;BME280_temperature;BME280_humidity;BME280_pressure;Samples;Min_cycle;Max_cycle;Signal;HPM_P1;HPM_P2
2022/12/27 00:02:00;;;;;;;8.40;2.35;;;3.30;99.90;;;;;;6020326;23;20049;-87
2022/12/27 00:04:26;;;;;;;6.88;2.42;;;3.30;99.90;;;;;;6020739;23;20110;-87
2022/12/27 00:06:53;;;;;;;9.95;3.30;;;3.30;99.90;;;;;;6021799;23;20051;-87
2022/12/27 00:09:18;;;;;;;8.38;2.85;;;3.30;99.90;;;;;;6046558;23;20695;-86
2022/12/27 00:11:47;;;;;;;7.43;2.30;;;3.40;99.90;;;;;;6048425;23;20158;-87
2022/12/27 00:14:12;;;;;;;7.57;2.22;;;3.30;99.90;;;;;;6047599;23;20025;-86
2022/12/27 00:16:38;;;;;;;9.65;2.75;;;3.30;99.90;;;;;;6025323;23;20345;-88
2022/12/27 00:19:04;;;;;;;7.35;2.45;;;3.30;99.90;;;;;;5998917;23;20016;-87
2022/12/27 00:21:30;;;;;;;6.97;2.20;;;3.40;99.90;;;;;;6023655;23;20113;-87
2022/12/27 00:23:56;;;;;;;13.90;2.58;;;3.50;99.90;;;;;;6022757;23;20402;-86
2022/12/27 00:26:32;;;;;;;10.15;3.33;;;3.60;99.90;;;;;;6000639;23;20070;-86
2022/12/27 00:28:58;;;;;;;9.50;2.20;;;3.60;99.90;;;;;;5999394;23;20450;-87
2022/12/27 00:31:25;;;;;;;11.27;2.35;;;3.70;99.90;;;;;;6023357;23;20019;-87
2022/12/27 00:33:53;;;;;;;9.20;2.17;;;3.70;99.90;;;;;;5999773;23;20015;-87
2022/12/27 00:36:22;;;;;;;12.27;2.55;;;3.70;99.90;;;;;;5999478;23;20023;-87
2022/12/27 00:38:48;;;;;;;11.48;2.63;;;3.90;99.90;;;;;;5995251;23;20023;-86
2022/12/27 00:41:15;;;;;;;11.93;2.80;;;3.90;99.90;;;;;;5985616;23;20212;-87
2022/12/27 00:43:40;;;;;;;6.88;2.83;;;4.00;99.90;;;;;;5986593;23;20019;-87
2022/12/27 00:46:06;;;;;;;10.15;2.50;;;4.00;99.90;;;;;;6035191;23;20153;-87
2022/12/27 00:48:32;;;;;;;6.75;2.40;;;4.00;99.90;;;;;;6017125;23;20023;-86
2022/12/27 00:51:07;;;;;;;11.23;2.95;;;4.00;99.90;;;;;;5997905;23;20300;-87
2022/12/27 00:53:37;;;;;;;10.65;2.67;;;4.10;99.90;;;;;;6046693;23;20023;-87
2022/12/27 00:56:08;;;;;;;10.93;2.15;;;4.10;99.90;;;;;;6024248;23;20019;-88
2022/12/27 00:58:35;;;;;;;6.07;1.90;;;4.10;99.90;;;;;;6000438;23;20147;-87
2022/12/27 01:01:10;;;;;;;8.80;2.90;;;4.00;99.90;;;;;;6024612;23;20391;-87
2022/12/27 01:03:36;;;;;;;6.93;2.55;;;4.00;99.90;;;;;;5999814;23;20031;-88
2022/12/27 01:06:04;;;;;;;9.32;2.50;;;4.00;99.90;;;;;;6000365;23;20023;-87
2022/12/27 01:08:30;;;;;;;12.07;2.83;;;4.00;99.90;;;;;;5977257;23;20521;-87
2022/12/27 01:10:56;;;;;;;13.25;3.25;;;4.00;99.90;;;;;;5977218;23;20023;-88
2022/12/27 01:13:21;;;;;;;10.77;2.70;;;3.90;99.90;;;;;;5977692;23;20023;-87
2022/12/27 01:15:47;;;;;;;9.05;2.72;;;4.00;99.90;;;;;;6021865;23;20019;-86
2022/12/27 01:18:12;;;;;;;12.73;3.38;;;4.10;99.90;;;;;;5976204;23;20031;-88
2022/12/27 01:20:38;;;;;;;10.60;2.55;;;4.00;99.90;;;;;;5976236;23;20023;-87
2022/12/27 01:23:04;;;;;;;11.13;3.13;;;4.00;99.90;;;;;;5975977;23;20019;-87
2022/12/27 01:25:29;;;;;;;11.57;2.63;;;4.10;99.90;;;;;;5976056;23;20126;-88
2022/12/27 01:27:55;;;;;;;12.90;2.78;;;4.10;99.90;;;;;;6047311;23;20027;-87
2022/12/27 01:30:21;;;;;;;9.63;3.13;;;4.10;99.90;;;;;;6047226;23;20078;-87
2022/12/27 01:32:46;;;;;;;11.23;2.40;;;4.10;99.90;;;;;;5975685;23;20088;-88
2022/12/27 01:35:12;;;;;;;10.85;2.50;;;4.20;99.90;;;;;;5976301;23;20015;-87
2022/12/27 01:37:37;;;;;;;13.57;2.50;;;4.20;99.90;;;;;;6022930;23;20399;-87
2022/12/27 01:40:03;;;;;;;10.80;2.80;;;4.20;99.90;;;;;;6022431;23;20015;-88
2022/12/27 01:45:16;;;;;;;9.52;2.67;;;4.30;99.90;;;;;;6045261;23;20020;-87
2022/12/27 01:48:01;;;;;;;10.43;3.10;;;4.40;99.90;;;;;;5974967;23;20015;-87
2022/12/27 01:50:43;;;;;;;14.80;3.28;;;4.40;99.90;;;;;;5975658;23;20170;-89
2022/12/27 01:53:21;;;;;;;9.38;2.60;;;4.40;99.90;;;;;;5976904;23;20023;-87
2022/12/27 01:55:59;;;;;;;11.15;2.83;;;4.30;99.90;;;;;;6046759;23;20122;-87
2022/12/27 01:58:43;;;;;;;10.35;2.97;;;4.30;99.90;;;;;;5998798;23;20016;-87
2022/12/27 02:01:13;;;;;;;9.30;2.92;;;4.30;99.90;;;;;;6046468;23;20146;-88
2022/12/27 02:03:51;;;;;;;8.90;2.42;;;4.30;99.90;;;;;;5976339;23;20027;-87
2022/12/27 02:06:19;;;;;;;8.38;2.55;;;4.30;99.90;;;;;;5996751;23;20789;-88
2022/12/27 02:09:17;;;;;;;13.32;3.00;;;4.30;99.90;;;;;;5975326;23;20055;-87
2022/12/27 02:11:56;;;;;;;8.32;3.13;;;4.30;99.90;;;;;;5975687;23;20277;-87
2022/12/27 02:14:33;;;;;;;14.20;3.63;;;4.30;99.90;;;;;;5997972;23;20071;-87
2022/12/27 02:17:09;;;;;;;10.07;3.10;;;4.30;99.90;;;;;;5974837;23;20166;-87
2022/12/27 02:19:47;;;;;;;10.25;2.95;;;4.30;99.90;;;;;;5976698;23;20226;-87
2022/12/27 02:25:53;;;;;;;8.88;2.67;;;4.30;99.90;;;;;;6047056;23;20019;-87
2022/12/27 02:28:43;;;;;;;9.63;2.63;;;4.30;99.90;;;;;;5999583;23;20557;-87
2022/12/27 02:31:29;;;;;;;7.60;2.30;;;4.30;99.90;;;;;;5997868;23;20024;-87
2022/12/27 02:33:57;;;;;;;11.25;2.65;;;4.30;99.90;;;;;;5975827;23;20037;-87
2022/12/27 02:36:27;;;;;;;11.77;2.53;;;4.20;99.90;;;;;;5976260;23;20023;-88
2022/12/27 02:38:56;;;;;;;11.75;3.05;;;4.20;99.90;;;;;;5976223;23;20341;-87
2022/12/27 02:54:41;;;;;;;11.32;2.42;;;4.40;99.90;;;;;;5944805;24;20036;-82
2022/12/27 02:57:36;;;;;;;7.07;2.10;;;4.50;99.90;;;;;;5914278;24;20609;-88
2022/12/27 03:03:30;;;;;;;10.20;2.10;;;4.60;99.90;;;;;;6066114;23;20477;-86
2022/12/27 03:15:53;;;;;;;8.63;2.55;;;4.60;99.90;;;;;;6021993;23;20023;-87
2022/12/27 03:15:55;;;;;;;10.25;2.78;;;4.50;99.90;;;;;;6020885;23;20530;-87
2022/12/27 03:18:27;;;;;;;9.23;1.85;;;4.40;99.90;;;;;;5997421;23;20349;-87
2022/12/27 03:26:31;;;;;;;8.98;2.55;;;4.30;99.90;;;;;;6021897;23;20183;-86
2022/12/27 03:34:41;;;;;;;8.90;2.10;;;4.30;99.90;;;;;;6021494;23;20035;-86
2022/12/27 03:40:33;;;;;;;10.60;2.33;;;4.40;99.90;;;;;;6021574;23;20020;-87
2022/12/27 03:43:12;;;;;;;9.60;2.25;;;4.40;99.90;;;;;;6069382;23;20059;-88
2022/12/27 03:48:27;;;;;;;13.77;2.95;;;4.40;99.90;;;;;;6020948;23;20034;-87
2022/12/27 03:51:03;;;;;;;13.48;2.80;;;4.40;99.90;;;;;;6045340;23;20055;-88
2022/12/27 03:53:39;;;;;;;12.60;2.95;;;4.50;99.90;;;;;;5998045;23;20158;-87
2022/12/27 03:56:06;;;;;;;6.25;2.50;;;4.50;99.90;;;;;;6046937;23;20011;-87
2022/12/27 03:58:32;;;;;;;9.63;2.53;;;4.50;99.90;;;;;;6069345;23;20030;-87
2022/12/27 04:00:58;;;;;;;13.55;2.97;;;4.60;99.90;;;;;;6044822;23;20409;-86
2022/12/27 04:03:24;;;;;;;6.88;2.30;;;4.60;99.90;;;;;;5974777;23;20516;-87
2022/12/27 04:05:49;;;;;;;10.52;3.08;;;4.60;99.90;;;;;;5974931;23;20015;-87
2022/12/27 04:35:37;;;;;;;7.82;1.90;;;4.30;99.90;;;;;;6045067;23;20030;-86
2022/12/27 04:38:03;;;;;;;7.75;1.90;;;4.30;99.90;;;;;;5975147;23;20126;-87
2022/12/27 04:57:05;;;;;;;6.70;2.38;;;4.30;99.90;;;;;;6046552;23;20063;-87
2022/12/27 05:02:17;;;;;;;10.03;2.13;;;4.30;99.90;;;;;;6057291;23;20030;-87
2022/12/27 05:04:44;;;;;;;6.85;2.47;;;4.40;99.90;;;;;;6047867;23;20294;-87
2022/12/27 05:15:28;;;;;;;9.15;2.22;;;4.40;99.90;;;;;;6023043;23;20102;-87
2022/12/27 05:17:55;;;;;;;12.48;2.40;;;4.50;99.90;;;;;;6046166;23;20058;-86
2022/12/27 05:20:21;;;;;;;9.60;2.38;;;4.60;99.90;;;;;;6047750;23;20502;-87
2022/12/27 05:25:33;;;;;;;8.93;1.90;;;4.60;99.90;;;;;;6023008;23;20023;-87
2022/12/27 05:27:59;;;;;;;8.52;2.30;;;4.40;99.90;;;;;;5998676;23;20354;-86
2022/12/27 05:30:25;;;;;;;4.70;1.98;;;4.30;99.90;;;;;;6046027;23;20102;-86
2022/12/27 05:32:55;;;;;;;8.02;1.77;;;4.30;99.90;;;;;;5998574;23;20051;-87
2022/12/27 05:35:21;;;;;;;4.63;1.20;;;4.20;99.90;;;;;;6023212;23;20020;-86
2022/12/27 05:37:46;;;;;;;3.85;1.35;;;4.20;99.90;;;;;;6022591;23;20034;-86
2022/12/27 05:40:12;;;;;;;3.75;1.10;;;4.20;99.90;;;;;;6022692;23;20042;-86
2022/12/27 05:42:38;;;;;;;6.57;1.38;;;4.10;99.90;;;;;;6070414;23;20089;-86
2022/12/27 05:45:04;;;;;;;8.85;2.20;;;4.10;99.90;;;;;;5998875;23;20263;-87
2022/12/27 05:47:30;;;;;;;7.53;1.92;;;4.10;99.90;;;;;;5999928;23;20011;-87
2022/12/27 05:49:55;;;;;;;6.38;2.15;;;4.00;99.90;;;;;;6046693;23;20433;-87
2022/12/27 05:52:21;;;;;;;7.85;2.35;;;4.00;99.90;;;;;;5998858;23;20412;-87
2022/12/27 05:54:46;;;;;;;11.82;2.85;;;4.00;99.90;;;;;;6069679;23;20318;-86
2022/12/27 05:57:12;;;;;;;10.75;2.20;;;4.00;99.90;;;;;;6022144;23;20905;-87
2022/12/27 05:59:38;;;;;;;12.02;2.45;;;4.00;99.90;;;;;;6000027;23;20453;-87
2022/12/27 06:02:09;;;;;;;8.63;2.58;;;4.00;99.90;;;;;;6021488;23;20023;-87
2022/12/27 06:04:35;;;;;;;11.77;2.53;;;3.90;99.90;;;;;;5999925;23;20303;-86
2022/12/27 06:07:00;;;;;;;8.50;2.25;;;3.90;99.90;;;;;;6046390;23;20023;-88
2022/12/27 06:09:26;;;;;;;11.38;2.50;;;3.90;99.90;;;;;;5998485;23;20031;-87
2022/12/27 06:11:52;;;;;;;8.48;2.70;;;3.80;99.90;;;;;;6021790;23;20019;-87
2022/12/27 06:14:17;;;;;;;12.95;2.90;;;3.80;99.90;;;;;;5999593;23;20341;-87
2022/12/27 06:16:43;;;;;;;13.38;2.92;;;3.80;99.90;;;;;;5999324;23;20508;-87
2022/12/27 06:19:09;;;;;;;7.82;2.08;;;3.80;99.90;;;;;;5998807;23;20438;-87
2022/12/27 06:21:34;;;;;;;10.10;2.20;;;3.80;99.90;;;;;;5999313;23;20012;-87
2022/12/27 06:24:00;;;;;;;7.43;2.05;;;3.80;99.90;;;;;;5998806;23;20023;-87
2022/12/27 06:26:28;;;;;;;8.05;2.30;;;3.70;99.90;;;;;;5999976;23;20386;-87
2022/12/27 06:28:56;;;;;;;11.75;2.20;;;3.70;99.90;;;;;;6022251;23;20023;-87
2022/12/27 06:31:22;;;;;;;8.82;3.00;;;3.60;99.90;;;;;;5999433;23;20019;-86
2022/12/27 06:33:49;;;;;;;12.18;2.80;;;3.60;99.90;;;;;;5999120;23;20025;-86
2022/12/27 06:36:17;;;;;;;10.00;2.75;;;3.60;99.90;;;;;;6022630;23;20019;-87
2022/12/27 06:38:43;;;;;;;7.43;2.50;;;3.50;99.90;;;;;;6045894;23;20018;-87
2022/12/27 06:41:12;;;;;;;11.30;2.42;;;3.40;99.90;;;;;;6020925;23;20026;-87
2022/12/27 06:43:39;;;;;;;7.53;2.63;;;3.40;99.90;;;;;;5995530;23;20402;-87
2022/12/27 06:46:16;;;;;;;14.50;2.65;;;3.40;99.90;;;;;;5990702;23;20023;-87
2022/12/27 06:48:43;;;;;;;11.23;2.90;;;3.40;99.90;;;;;;5995833;23;20401;-87
2022/12/27 06:51:11;;;;;;;9.90;2.63;;;3.40;99.90;;;;;;5997656;23;20031;-87
2022/12/27 06:53:37;;;;;;;8.43;2.78;;;3.40;99.90;;;;;;6021818;23;20051;-87
2022/12/27 06:56:09;;;;;;;7.82;2.78;;;3.40;99.90;;;;;;6047152;23;20026;-87
2022/12/27 06:58:35;;;;;;;15.70;3.25;;;3.30;99.90;;;;;;5996856;23;20022;-87
2022/12/27 07:01:27;;;;;;;6.95;1.92;;;3.30;99.90;;;;;;5998401;23;20038;-87
2022/12/27 07:03:55;;;;;;;7.97;2.05;;;3.50;99.90;;;;;;5970272;23;20446;-87
2022/12/27 07:06:25;;;;;;;9.68;2.30;;;3.30;99.90;;;;;;5973828;23;20067;-87
2022/12/27 07:08:51;;;;;;;9.40;2.35;;;3.40;99.90;;;;;;5974539;23;20026;-87
2022/12/27 07:11:19;;;;;;;11.82;2.58;;;3.40;99.90;;;;;;5997782;23;20082;-87
2022/12/27 07:13:50;;;;;;;8.75;1.98;;;3.40;99.90;;;;;;5996821;23;20022;-87
2022/12/27 07:16:18;;;;;;;7.07;2.35;;;3.30;99.90;;;;;;5975017;23;20478;-88
2022/12/27 07:18:45;;;;;;;6.80;2.30;;;3.50;99.90;;;;;;5973495;23;20012;-87
2022/12/27 07:21:15;;;;;;;9.85;2.30;;;3.40;99.90;;;;;;5998002;23;20011;-86
2022/12/27 07:23:41;;;;;;;4.70;2.13;;;3.50;99.90;;;;;;5975131;23;20063;-86
2022/12/27 07:26:09;;;;;;;10.48;2.50;;;3.50;99.90;;;;;;6044763;23;20365;-87
2022/12/27 07:28:36;;;;;;;10.05;2.13;;;3.50;99.90;;;;;;5974891;23;20526;-87
2022/12/27 07:31:11;;;;;;;7.47;2.45;;;3.60;99.90;;;;;;5974995;23;20019;-87
2022/12/27 07:33:37;;;;;;;7.80;2.20;;;3.70;99.90;;;;;;5973670;23;20027;-86
2022/12/27 07:36:05;;;;;;;11.40;2.78;;;3.60;99.90;;;;;;5997626;23;20940;-87
2022/12/27 07:38:31;;;;;;;8.98;2.53;;;3.60;99.90;;;;;;5998009;23;20156;-86
2022/12/27 07:40:58;;;;;;;14.05;2.63;;;3.60;99.90;;;;;;5975611;23;20015;-86
2022/12/27 07:43:25;;;;;;;16.67;2.95;;;3.60;99.90;;;;;;5976483;23;20158;-87
2022/12/27 07:45:53;;;;;;;8.98;2.75;;;3.60;99.90;;;;;;5974072;23;20603;-87
2022/12/27 07:48:19;;;;;;;11.07;3.15;;;3.60;99.90;;;;;;5974927;23;20377;-86
2022/12/27 07:50:54;;;;;;;10.45;3.22;;;3.70;99.90;;;;;;5997990;23;20022;-87
2022/12/27 07:53:19;;;;;;;11.77;3.13;;;3.70;99.90;;;;;;5973553;23;20042;-87
2022/12/27 07:55:46;;;;;;;10.85;2.65;;;3.70;99.90;;;;;;6021396;23;20337;-87
2022/12/27 07:58:11;;;;;;;8.10;2.65;;;3.80;99.90;;;;;;5997769;23;20019;-87
2022/12/27 08:00:37;;;;;;;12.18;3.17;;;3.80;99.90;;;;;;5974511;23;20515;-87
2022/12/27 08:03:03;;;;;;;17.65;3.55;;;3.80;99.90;;;;;;6041839;23;20019;-87
2022/12/27 08:05:29;;;;;;;11.88;3.00;;;3.80;99.90;;;;;;6021377;23;20031;-88
2022/12/27 08:07:56;;;;;;;13.70;2.80;;;3.70;99.90;;;;;;6022207;23;20041;-87
2022/12/27 08:10:21;;;;;;;14.10;3.25;;;3.70;99.90;;;;;;5999201;23;20060;-87
2022/12/27 08:12:47;;;;;;;10.63;3.00;;;3.60;99.90;;;;;;5999281;23;20023;-86
2022/12/27 08:15:13;;;;;;;15.13;3.28;;;3.50;99.90;;;;;;6021322;23;20016;-86
2022/12/27 08:17:39;;;;;;;10.75;3.55;;;3.50;99.90;;;;;;6069922;23;20385;-88
2022/12/27 08:20:05;;;;;;;12.95;3.08;;;3.50;99.90;;;;;;6068929;23;20035;-88
2022/12/27 08:22:30;;;;;;;20.92;4.15;;;3.50;99.90;;;;;;5997491;23;20019;-88
2022/12/27 08:24:56;;;;;;;18.95;3.53;;;3.50;99.90;;;;;;6045005;23;20102;-87
2022/12/27 08:27:23;;;;;;;15.82;3.92;;;3.50;99.90;;;;;;6047276;23;20038;-87
2022/12/27 08:29:49;;;;;;;16.27;3.20;;;3.60;99.90;;;;;;5999502;23;20267;-88
2022/12/27 08:32:15;;;;;;;12.98;3.00;;;3.60;99.90;;;;;;6047926;23;20038;-87
2022/12/27 08:34:41;;;;;;;7.05;2.92;;;3.50;99.90;;;;;;6000528;23;20027;-88
2022/12/27 08:37:07;;;;;;;10.93;2.70;;;3.40;99.90;;;;;;6000803;23;20019;-88
2022/12/27 08:39:33;;;;;;;8.90;2.47;;;3.40;99.90;;;;;;6047243;23;20015;-87
2022/12/27 08:41:58;;;;;;;11.68;3.00;;;3.40;99.90;;;;;;6000815;23;20085;-87
2022/12/27 08:44:26;;;;;;;15.98;3.45;;;3.40;99.90;;;;;;6047467;23;20077;-89
2022/12/27 08:46:51;;;;;;;13.30;2.85;;;3.40;99.90;;;;;;5999775;23;20019;-88
2022/12/27 08:49:17;;;;;;;12.35;3.55;;;3.50;99.90;;;;;;5998799;23;20019;-88
2022/12/27 08:51:43;;;;;;;12.57;3.10;;;3.50;99.90;;;;;;6024150;23;20461;-88
2022/12/27 08:54:08;;;;;;;12.60;2.88;;;3.50;99.90;;;;;;6022185;23;20042;-87
2022/12/27 08:56:34;;;;;;;14.95;3.00;;;3.60;99.90;;;;;;6071888;23;20505;-88
2022/12/27 08:59:00;;;;;;;12.88;2.92;;;3.60;99.90;;;;;;6045335;23;20015;-87
2022/12/27 09:01:26;;;;;;;13.55;3.13;;;3.60;99.90;;;;;;6046683;23;20091;-88
2022/12/27 09:03:51;;;;;;;10.45;2.85;;;3.60;99.90;;;;;;6022040;23;20067;-87
2022/12/27 09:06:20;;;;;;;9.20;2.92;;;3.60;99.90;;;;;;6045224;23;20445;-87
2022/12/27 09:08:47;;;;;;;12.55;3.35;;;3.70;99.90;;;;;;5999590;23;20106;-87
2022/12/27 09:11:18;;;;;;;10.90;3.10;;;3.70;99.90;;;;;;6022423;23;20099;-87
2022/12/27 09:13:44;;;;;;;21.45;3.05;;;3.80;99.90;;;;;;5996227;23;20573;-88
2022/12/27 09:16:13;;;;;;;9.52;3.28;;;3.80;99.90;;;;;;5999288;23;20015;-87
2022/12/27 09:18:40;;;;;;;13.48;3.33;;;3.80;99.90;;;;;;5997355;23;20015;-87
2022/12/27 09:21:10;;;;;;;11.52;3.20;;;3.90;99.90;;;;;;6023765;23;20017;-87
2022/12/27 09:23:37;;;;;;;11.05;2.90;;;3.90;99.90;;;;;;6021914;23;20054;-88
2022/12/27 09:26:12;;;;;;;8.98;3.00;;;4.00;99.90;;;;;;5998916;23;20047;-89
2022/12/27 09:28:38;;;;;;;11.25;3.00;;;3.90;99.90;;;;;;5998782;23;20032;-87
2022/12/27 09:31:05;;;;;;;10.23;2.95;;;3.90;99.90;;;;;;5999353;23;20026;-87
2022/12/27 09:33:31;;;;;;;10.88;3.28;;;3.90;99.90;;;;;;5998843;23;20023;-88
2022/12/27 09:36:06;;;;;;;10.23;3.58;;;3.90;99.90;;;;;;6021395;23;20145;-88
2022/12/27 09:38:31;;;;;;;8.23;2.97;;;4.00;99.90;;;;;;5998287;23;20026;-87
2022/12/27 09:41:00;;;;;;;11.10;3.10;;;4.00;99.90;;;;;;6045627;23;20015;-87
2022/12/27 09:43:52;;;;;;;14.90;3.42;;;4.10;99.90;;;;;;6045767;23;20016;-87
2022/12/27 09:46:23;;;;;;;9.45;3.67;;;4.10;99.90;;;;;;5986271;23;20109;-88
2022/12/27 09:48:51;;;;;;;11.13;3.55;;;4.10;99.90;;;;;;5993777;23;20051;-87
2022/12/27 09:51:20;;;;;;;10.02;3.00;;;4.20;99.90;;;;;;5986148;23;20328;-87
2022/12/27 09:53:57;;;;;;;13.60;3.25;;;4.30;99.90;;;;;;5997198;23;20389;-89
2022/12/27 09:56:29;;;;;;;16.15;3.40;;;4.30;99.90;;;;;;6022359;23;20098;-88
2022/12/27 09:59:03;;;;;;;9.52;2.90;;;4.30;99.90;;;;;;5994732;23;20457;-89
2022/12/27 10:01:39;;;;;;;12.27;2.85;;;4.40;99.90;;;;;;6040257;23;20023;-89
2022/12/27 10:04:12;;;;;;;13.18;3.30;;;4.50;99.90;;;;;;5994264;23;20124;-88
2022/12/27 10:06:49;;;;;;;9.90;3.33;;;4.60;99.90;;;;;;5994104;23;20763;-88
2022/12/27 10:09:38;;;;;;;11.57;3.70;;;4.60;99.90;;;;;;6021780;23;20489;-88
2022/12/27 10:12:16;;;;;;;11.20;3.05;;;4.60;99.90;;;;;;6019741;23;20292;-88
2022/12/27 10:15:20;;;;;;;10.13;4.57;;;4.70;99.90;;;;;;6020789;23;20035;-88
2022/12/27 10:18:07;;;;;;;10.05;3.22;;;4.70;99.90;;;;;;6046045;23;20086;-88
2022/12/27 10:20:52;;;;;;;11.13;3.35;;;4.80;99.90;;;;;;6021562;23;20301;-89
2022/12/27 10:23:22;;;;;;;11.52;3.30;;;4.90;99.90;;;;;;6022394;23;20094;-88
2022/12/27 10:25:57;;;;;;;10.50;3.05;;;5.00;99.90;;;;;;5998401;23;20023;-89
2022/12/27 10:28:33;;;;;;;13.80;3.60;;;5.00;99.90;;;;;;6045741;23;20533;-87
2022/12/27 10:31:02;;;;;;;12.30;3.50;;;5.10;99.90;;;;;;6021317;23;20041;-88
2022/12/27 10:33:29;;;;;;;12.75;3.25;;;5.30;99.90;;;;;;6045282;23;20011;-89
2022/12/27 10:35:56;;;;;;;9.80;3.40;;;5.30;99.90;;;;;;6045548;23;20022;-88
2022/12/27 10:38:23;;;;;;;11.10;3.15;;;5.50;99.90;;;;;;5999114;23;20016;-88
2022/12/27 10:41:04;;;;;;;11.25;3.03;;;5.60;99.90;;;;;;6022820;23;20054;-88
2022/12/27 10:43:37;;;;;;;10.25;2.95;;;5.70;99.90;;;;;;6022626;23;20019;-89
2022/12/27 10:46:14;;;;;;;10.57;3.03;;;5.70;99.90;;;;;;5997266;23;20019;-88
2022/12/27 10:48:39;;;;;;;11.73;2.90;;;5.90;99.90;;;;;;5998588;23;20023;-88
2022/12/27 10:51:08;;;;;;;16.52;3.40;;;5.90;99.90;;;;;;6040467;23;20030;-88
2022/12/27 10:53:45;;;;;;;11.43;2.88;;;5.90;99.90;;;;;;6021130;23;20095;-89
2022/12/27 10:56:19;;;;;;;6.53;2.60;;;5.90;99.90;;;;;;6069095;23;20019;-88
2022/12/27 10:58:47;;;;;;;11.98;3.58;;;6.00;99.90;;;;;;6022642;23;20394;-88
2022/12/27 11:01:25;;;;;;;12.57;2.90;;;6.10;99.90;;;;;;6021816;23;20023;-88
2022/12/27 11:04:06;;;;;;;9.85;2.75;;;6.10;99.90;;;;;;5999132;23;20019;-88
2022/12/27 11:06:32;;;;;;;8.85;2.88;;;6.10;99.90;;;;;;5974758;23;20045;-89
2022/12/27 11:09:23;;;;;;;15.85;4.45;;;6.10;99.90;;;;;;5975674;23;20354;-87
2022/12/27 11:11:49;;;;;;;9.88;2.80;;;6.10;99.90;;;;;;6046660;23;20137;-87
2022/12/27 11:14:21;;;;;;;10.95;3.17;;;6.00;99.90;;;;;;6000382;23;20130;-89
2022/12/27 11:16:48;;;;;;;10.48;3.03;;;5.90;99.90;;;;;;5975653;23;20026;-88
2022/12/27 11:19:24;;;;;;;9.98;3.40;;;5.90;99.90;;;;;;5974555;23;20038;-88
2022/12/27 11:21:52;;;;;;;9.45;2.60;;;6.00;99.90;;;;;;5974425;23;20094;-87
2022/12/27 11:24:20;;;;;;;11.57;2.40;;;6.00;99.90;;;;;;5999608;23;20046;-88
2022/12/27 11:26:50;;;;;;;15.18;3.10;;;6.00;99.90;;;;;;5975641;23;20023;-87
2022/12/27 11:29:20;;;;;;;12.30;2.92;;;6.00;99.90;;;;;;6046022;23;20025;-88
2022/12/27 11:31:47;;;;;;;15.60;3.33;;;6.10;99.90;;;;;;5974584;23;20047;-87
2022/12/27 11:34:45;;;;;;;10.82;3.00;;;6.20;99.90;;;;;;5973612;23;20027;-88
2022/12/27 11:37:15;;;;;;;12.07;2.60;;;6.30;99.90;;;;;;5971191;23;20025;-87
2022/12/27 11:39:45;;;;;;;10.27;2.45;;;6.40;99.90;;;;;;5974430;23;20030;-87
2022/12/27 11:42:21;;;;;;;8.75;2.58;;;6.40;99.90;;;;;;5998115;23;20050;-89
2022/12/27 11:45:12;;;;;;;9.75;3.00;;;6.50;99.90;;;;;;5997499;23;20360;-87
2022/12/27 11:48:03;;;;;;;9.68;2.50;;;6.40;99.90;;;;;;5974863;23;20025;-88
2022/12/27 11:51:02;;;;;;;11.85;2.60;;;6.50;99.90;;;;;;6044461;23;20146;-88
2022/12/27 11:53:56;;;;;;;7.10;2.35;;;6.50;99.90;;;;;;5973640;23;20025;-87
2022/12/27 11:56:27;;;;;;;9.85;2.95;;;6.50;99.90;;;;;;5972569;23;20438;-88
2022/12/27 11:59:36;;;;;;;10.93;2.55;;;6.50;99.90;;;;;;5975895;23;20441;-88
2022/12/27 12:02:10;;;;;;;12.90;3.17;;;6.40;99.90;;;;;;5985630;23;20023;-88
2022/12/27 12:05:01;;;;;;;9.23;2.92;;;6.40;99.90;;;;;;6022263;23;20115;-88
2022/12/27 12:07:50;;;;;;;9.07;3.42;;;6.50;99.90;;;;;;6024085;23;20051;-89
2022/12/27 12:10:29;;;;;;;12.73;3.05;;;6.60;99.90;;;;;;6024033;23;20102;-88
2022/12/27 12:13:23;;;;;;;8.13;2.67;;;6.60;99.90;;;;;;6024509;23;20042;-88
2022/12/27 12:15:54;;;;;;;9.00;3.10;;;6.60;99.90;;;;;;6023645;23;20505;-88
2022/12/27 12:18:23;;;;;;;11.70;3.00;;;6.50;99.90;;;;;;6023162;23;20448;-88
2022/12/27 12:21:10;;;;;;;10.02;3.05;;;6.50;99.90;;;;;;6023445;23;20431;-88
2022/12/27 12:23:57;;;;;;;12.68;2.50;;;6.50;99.90;;;;;;6023596;23;20339;-87
2022/12/27 12:26:25;;;;;;;9.85;2.78;;;6.50;99.90;;;;;;6047632;23;20110;-87
2022/12/27 12:28:51;;;;;;;13.48;2.60;;;6.60;99.90;;;;;;6001587;23;20247;-89
2022/12/27 12:31:48;;;;;;;12.82;2.92;;;6.60;99.90;;;;;;6023332;23;20119;-88
2022/12/27 12:34:51;;;;;;;9.23;3.03;;;6.60;99.90;;;;;;5999667;23;20061;-88
2022/12/27 12:37:37;;;;;;;8.43;2.30;;;6.60;99.90;;;;;;6071896;23;20015;-88
2022/12/27 12:40:31;;;;;;;12.18;2.33;;;6.50;99.90;;;;;;6023559;23;20067;-88
2022/12/27 12:43:18;;;;;;;8.35;2.42;;;6.50;99.90;;;;;;6072129;23;20450;-88
2022/12/27 12:45:52;;;;;;;7.82;2.08;;;6.40;99.90;;;;;;6022419;23;20026;-87
2022/12/27 12:48:50;;;;;;;9.70;2.35;;;6.50;99.90;;;;;;6047137;23;20089;-88
2022/12/27 12:51:47;;;;;;;11.25;2.38;;;6.50;99.90;;;;;;6021076;23;20023;-86
2022/12/27 12:54:15;;;;;;;8.35;2.33;;;6.50;99.90;;;;;;6071189;23;20023;-88
2022/12/27 12:57:00;;;;;;;12.45;2.05;;;6.50;99.90;;;;;;6024561;23;20015;-88
2022/12/27 12:59:36;;;;;;;8.88;2.58;;;6.50;99.90;;;;;;6023687;23;20019;-88
2022/12/27 13:02:20;;;;;;;9.25;2.67;;;6.40;99.90;;;;;;6024600;23;20015;-87
2022/12/27 13:05:12;;;;;;;9.80;2.30;;;6.50;99.90;;;;;;6070621;23;20497;-87
2022/12/27 13:08:05;;;;;;;11.27;2.50;;;6.50;99.90;;;;;;5999449;23;20796;-88
2022/12/27 13:11:21;;;;;;;8.00;2.63;;;6.40;99.90;;;;;;6023723;23;20129;-87
2022/12/27 13:14:09;;;;;;;12.80;2.72;;;6.40;99.90;;;;;;5965849;24;20569;-87
2022/12/27 13:17:14;;;;;;;13.10;3.47;;;6.40;99.90;;;;;;5939963;24;20345;-88
2022/12/27 13:20:06;;;;;;;8.38;3.00;;;6.50;99.90;;;;;;5988086;23;20405;-88
2022/12/27 13:23:10;;;;;;;11.75;3.10;;;6.50;99.90;;;;;;6022532;23;20030;-88
2022/12/27 13:25:45;;;;;;;8.48;2.90;;;6.50;99.90;;;;;;6069673;23;20051;-89
2022/12/27 13:28:35;;;;;;;15.40;3.20;;;6.50;99.90;;;;;;5998560;23;20068;-87
2022/12/27 13:31:22;;;;;;;11.77;3.13;;;6.60;99.90;;;;;;6022018;23;20051;-87
2022/12/27 13:34:24;;;;;;;14.90;3.20;;;6.50;99.90;;;;;;6020452;23;20030;-88
2022/12/27 13:37:10;;;;;;;10.80;3.30;;;6.50;99.90;;;;;;6018482;23;20019;-87
2022/12/27 13:39:57;;;;;;;8.52;3.45;;;6.50;99.90;;;;;;5997122;23;20074;-89
2022/12/27 13:42:44;;;;;;;9.07;3.65;;;6.50;99.90;;;;;;6069389;23;20015;-88
2022/12/27 13:45:38;;;;;;;11.27;3.42;;;6.50;99.90;;;;;;6068954;23;20050;-88
2022/12/27 13:48:38;;;;;;;13.30;3.85;;;6.40;99.90;;;;;;6045502;23;20453;-88
2022/12/27 13:51:41;;;;;;;9.90;4.20;;;6.40;99.90;;;;;;6020263;23;20019;-88
2022/12/27 13:54:34;;;;;;;14.55;3.67;;;6.40;99.90;;;;;;5977556;23;20027;-88
2022/12/27 13:57:25;;;;;;;12.73;4.53;;;6.40;99.90;;;;;;6069584;23;20027;-87
2022/12/27 14:00:00;;;;;;;16.90;4.63;;;6.30;99.90;;;;;;6069318;23;20472;-88
2022/12/27 14:02:51;;;;;;;;;;;6.30;99.90;;;;;;6010513;23;20033;-88
2022/12/27 14:05:26;;;;;;;13.57;3.95;;;6.30;99.90;;;;;;5988607;23;20328;-88
2022/12/27 14:08:00;;;;;;;;;;;6.20;99.90;;;;;;6045259;23;20548;-87
2022/12/27 14:10:32;;;;;;;12.93;4.00;;;6.30;99.90;;;;;;6020983;23;19953;-88
2022/12/27 14:13:00;;;;;;;14.63;4.15;;;6.30;99.90;;;;;;6045047;23;20461;-88
2022/12/27 14:15:35;;;;;;;10.68;3.80;;;6.40;99.90;;;;;;5996821;23;20312;-88
2022/12/27 14:18:22;;;;;;;10.05;4.18;;;6.40;99.90;;;;;;5974481;23;20021;-88
2022/12/27 14:21:15;;;;;;;10.40;4.00;;;6.40;99.90;;;;;;6043893;23;20465;-87
2022/12/27 14:23:58;;;;;;;17.67;4.60;;;6.40;99.90;;;;;;6044278;23;20033;-88
2022/12/27 14:26:51;;;;;;;15.80;5.15;;;6.40;99.90;;;;;;6043872;23;20106;-88
2022/12/27 14:29:23;;;;;;;16.63;5.28;;;6.40;99.90;;;;;;5998378;23;20074;-87
2022/12/27 14:31:49;;;;;;;17.85;5.95;;;6.40;99.90;;;;;;6044217;23;20026;-88
2022/12/27 14:34:20;;;;;;;17.95;5.70;;;6.40;99.90;;;;;;6044306;23;20020;-87
2022/12/27 14:37:07;;;;;;;13.85;6.82;;;6.40;99.90;;;;;;6043241;23;20389;-87
2022/12/27 14:40:07;;;;;;;14.13;6.30;;;6.40;99.90;;;;;;6044644;23;20047;-88
2022/12/27 14:43:00;;;;;;;16.45;6.65;;;6.40;99.90;;;;;;5997228;23;20090;-88
2022/12/27 14:45:26;;;;;;;14.02;7.10;;;6.30;99.90;;;;;;5996924;23;20027;-87
2022/12/27 14:48:01;;;;;;;14.40;6.65;;;6.30;99.90;;;;;;6042614;23;20074;-89
2022/12/27 14:50:42;;;;;;;15.68;7.60;;;6.20;99.90;;;;;;5973738;23;20444;-87
2022/12/27 14:53:16;;;;;;;12.50;8.10;;;6.20;99.90;;;;;;6044916;23;20019;-89
2022/12/27 14:56:15;;;;;;;13.65;7.90;;;6.20;99.90;;;;;;6044698;23;20417;-87
2022/12/27 14:58:57;;;;;;;15.57;8.13;;;6.20;99.90;;;;;;5973092;23;20022;-88
2022/12/27 15:01:41;;;;;;;15.82;8.73;;;6.10;99.90;;;;;;5973290;23;20374;-88
2022/12/27 15:04:38;;;;;;;16.97;9.00;;;6.00;99.90;;;;;;6020288;23;20260;-88
2022/12/27 15:07:20;;;;;;;17.00;9.50;;;6.10;99.90;;;;;;6044490;23;20019;-87
2022/12/27 15:10:04;;;;;;;15.63;9.27;;;6.00;99.90;;;;;;6020718;23;20019;-87